Time;durP1;ratioP1;P1;durP2;ratioP2;P2;SDS_P1;SDS_P2;PMS_P1;PMS_P2;Temp;Humidity;BMP_temperature;BMP_pressure;BME280_temperature;BME280_humidity;BME280_pressure;Samples;Min_cycle;Max_cycle;Signal;HPM_P1;HPM_P2
2023/10/02 00:02:40;;;;;;;10.15;5.20;;;359.00;2329.60;;;;;;5081426;28;20059;-60
2023/10/02 00:05:05;;;;;;;10.05;5.10;;;359.00;2329.60;;;;;;5078731;28;20044;-60
2023/10/02 00:07:33;;;;;;;8.40;5.38;;;359.00;2329.60;;;;;;5088062;28;20095;-60
2023/10/02 00:10:00;;;;;;;11.38;5.35;;;359.00;2329.60;;;;;;5088527;28;20028;-60
2023/10/02 00:12:28;;;;;;;9.13;4.88;;;359.00;2329.60;;;;;;5087905;28;20012;-59
2023/10/02 00:14:55;;;;;;;9.95;5.07;;;359.00;2329.60;;;;;;5088241;28;20473;-59
2023/10/02 00:17:24;;;;;;;12.73;5.50;;;359.00;2329.60;;;;;;5087897;28;20103;-58
2023/10/02 00:19:57;;;;;;;10.45;5.82;;;359.00;2329.60;;;;;;5087811;28;20072;-59
2023/10/02 00:22:43;;;;;;;10.25;5.43;;;358.90;2329.60;;;;;;5063225;28;20534;-59
2023/10/02 00:25:16;;;;;;;10.75;5.53;;;358.90;2329.60;;;;;;5088610;28;20499;-61
2023/10/02 00:27:48;;;;;;;8.65;4.72;;;359.00;2329.60;;;;;;5071186;28;20024;-59
2023/10/02 00:30:15;;;;;;;12.77;4.95;;;359.00;2329.60;;;;;;5073600;28;20046;-58
2023/10/02 00:32:43;;;;;;;9.65;4.78;;;359.00;2329.60;;;;;;5088288;28;20500;-60
2023/10/02 00:35:12;;;;;;;10.10;4.82;;;359.00;2329.60;;;;;;5087364;28;20032;-60
2023/10/02 00:37:51;;;;;;;10.55;5.43;;;359.00;2329.60;;;;;;5088503;28;20036;-59
2023/10/02 00:40:22;;;;;;;6.93;4.82;;;358.90;2329.60;;;;;;5064712;28;20024;-59
2023/10/02 00:42:58;;;;;;;12.32;6.35;;;359.00;2329.60;;;;;;5087939;28;20020;-60
2023/10/02 00:45:29;;;;;;;12.85;6.53;;;359.00;2329.60;;;;;;5088103;28;20040;-59
2023/10/02 00:48:24;;;;;;;11.20;5.72;;;359.10;2329.60;;;;;;5088230;28;20029;-59
2023/10/02 00:50:49;;;;;;;11.60;5.45;;;359.20;2329.60;;;;;;5087600;28;20040;-59
2023/10/02 00:53:21;;;;;;;13.05;5.50;;;359.30;2329.60;;;;;;5079496;28;20100;-60
2023/10/02 00:55:51;;;;;;;12.90;5.85;;;359.30;2329.60;;;;;;5083898;28;20040;-60
2023/10/02 00:58:19;;;;;;;9.45;5.03;;;359.30;2329.60;;;;;;5078722;28;20497;-59
2023/10/02 01:00:50;;;;;;;9.60;5.38;;;359.30;2329.60;;;;;;5084851;28;20028;-58
2023/10/02 01:03:16;;;;;;;10.82;5.20;;;359.30;2329.60;;;;;;5084858;28;20371;-60
2023/10/02 01:05:50;;;;;;;9.80;5.47;;;359.30;2329.60;;;;;;5069758;28;20031;-59
2023/10/02 01:08:23;;;;;;;12.65;5.55;;;359.30;2329.60;;;;;;5091622;28;20043;-59
2023/10/02 01:10:58;;;;;;;10.10;5.93;;;359.30;2329.60;;;;;;5090875;28;20028;-60
2023/10/02 01:13:34;;;;;;;13.00;5.97;;;359.30;2329.60;;;;;;5091089;28;20068;-59
2023/10/02 01:16:07;;;;;;;11.23;5.75;;;359.30;2329.60;;;;;;5079952;28;20031;-59
2023/10/02 01:18:33;;;;;;;10.17;4.87;;;359.30;2329.60;;;;;;5091040;28;20051;-60
2023/10/02 01:21:01;;;;;;;9.60;5.18;;;384.00;2329.60;;;;;;5091091;28;20570;-60
2023/10/02 01:23:31;;;;;;;12.45;6.10;;;384.00;2329.60;;;;;;5091017;28;20073;-59
2023/10/02 01:25:58;;;;;;;8.13;5.10;;;384.00;2329.60;;;;;;5089925;28;20032;-59
2023/10/02 01:28:52;;;;;;;12.10;6.32;;;384.10;2329.60;;;;;;5091291;28;20016;-60
2023/10/02 01:31:40;;;;;;;14.40;5.43;;;384.20;2329.60;;;;;;5091125;28;20035;-60
2023/10/02 01:34:06;;;;;;;9.88;5.70;;;384.20;2329.60;;;;;;5091038;28;20024;-58
2023/10/02 01:36:33;;;;;;;10.13;5.30;;;384.20;2329.60;;;;;;5085324;28;20107;-59
2023/10/02 01:39:10;;;;;;;9.45;5.40;;;384.30;2329.60;;;;;;5070923;28;20020;-60
2023/10/02 01:41:36;;;;;;;9.77;5.82;;;384.30;2329.60;;;;;;5089493;28;20012;-59
2023/10/02 01:44:06;;;;;;;9.95;5.47;;;384.30;2329.60;;;;;;5090484;28;20024;-59
2023/10/02 01:46:36;;;;;;;14.13;6.22;;;384.40;2329.60;;;;;;5090375;28;20427;-60
2023/10/02 01:49:02;;;;;;;10.82;5.35;;;384.30;2329.60;;;;;;5090361;28;20020;-59
2023/10/02 01:51:31;;;;;;;10.38;5.90;;;384.20;2329.60;;;;;;5090690;28;20126;-59
2023/10/02 01:53:59;;;;;;;12.52;5.85;;;384.30;2329.60;;;;;;5089875;28;20469;-59
2023/10/02 01:56:29;;;;;;;10.50;5.70;;;384.20;2329.60;;;;;;5090257;28;20462;-59
2023/10/02 01:59:14;;;;;;;9.68;5.47;;;384.20;2329.60;;;;;;5090383;28;20020;-58
2023/10/02 02:01:51;;;;;;;13.00;5.90;;;384.10;2329.60;;;;;;5089618;28;20363;-59
2023/10/02 02:04:18;;;;;;;9.10;5.03;;;384.00;2329.60;;;;;;5089877;28;20107;-60
2023/10/02 02:06:54;;;;;;;9.23;5.63;;;384.00;2329.60;;;;;;5090400;28;20028;-59
2023/10/02 02:09:26;;;;;;;8.50;5.45;;;359.30;2329.60;;;;;;5074355;28;20033;-60
2023/10/02 02:12:07;;;;;;;12.52;5.90;;;359.30;2329.60;;;;;;5082018;28;20523;-60
2023/10/02 02:14:40;;;;;;;9.68;5.40;;;359.30;2329.60;;;;;;5089876;28;20134;-59
2023/10/02 02:17:10;;;;;;;9.80;5.35;;;359.30;2329.60;;;;;;5089900;28;20526;-59
2023/10/02 02:19:48;;;;;;;11.10;5.30;;;359.30;2329.60;;;;;;5089693;28;20502;-59
2023/10/02 02:22:14;;;;;;;12.45;5.80;;;384.00;2329.60;;;;;;5089313;28;20032;-59
2023/10/02 02:24:40;;;;;;;9.77;5.30;;;359.30;2329.60;;;;;;5090010;28;20517;-59
2023/10/02 02:27:07;;;;;;;11.35;5.88;;;359.30;2329.60;;;;;;5090057;28;20048;-60
2023/10/02 02:29:34;;;;;;;10.43;5.82;;;359.30;2329.60;;;;;;5089143;28;20036;-59
2023/10/02 02:32:00;;;;;;;10.65;5.93;;;359.30;2329.60;;;;;;5089620;28;20478;-60
2023/10/02 02:34:26;;;;;;;11.00;6.07;;;359.30;2329.60;;;;;;5089728;28;20082;-60
2023/10/02 02:36:54;;;;;;;12.82;6.35;;;359.30;2329.60;;;;;;5082267;28;20081;-59
2023/10/02 02:39:25;;;;;;;9.60;5.80;;;384.00;2329.60;;;;;;5081906;28;20035;-60
2023/10/02 02:42:08;;;;;;;12.10;5.72;;;384.00;2329.60;;;;;;5065420;28;20390;-60
2023/10/02 02:44:39;;;;;;;15.73;6.68;;;359.30;2329.60;;;;;;5086267;28;20032;-60
2023/10/02 02:47:07;;;;;;;8.65;4.97;;;384.00;2329.60;;;;;;5089363;28;20028;-59
2023/10/02 02:49:48;;;;;;;11.35;5.55;;;384.00;2329.60;;;;;;5089763;28;20119;-60
2023/10/02 02:52:15;;;;;;;10.85;5.03;;;359.30;2329.60;;;;;;5089027;28;20020;-60
2023/10/02 02:54:44;;;;;;;11.02;6.18;;;384.00;2329.60;;;;;;5089560;28;20082;-60
2023/10/02 02:57:12;;;;;;;9.15;5.53;;;359.30;2329.60;;;;;;5089344;28;20022;-60
2023/10/02 02:59:38;;;;;;;11.32;6.50;;;359.30;2329.60;;;;;;5089497;28;20031;-59
2023/10/02 03:02:15;;;;;;;10.65;5.72;;;359.20;2329.60;;;;;;5089157;28;20024;-59
2023/10/02 03:04:42;;;;;;;8.63;5.65;;;359.20;2329.60;;;;;;5089207;28;20035;-60
2023/10/02 03:07:09;;;;;;;10.88;6.05;;;359.10;2329.60;;;;;;5073931;28;20035;-60
2023/10/02 03:09:37;;;;;;;7.75;5.45;;;384.30;2329.60;;;;;;5083752;28;20028;-60
2023/10/02 03:12:05;;;;;;;11.52;6.85;;;359.10;2329.60;;;;;;5070058;28;20020;-59
2023/10/02 03:14:34;;;;;;;12.55;6.15;;;359.00;2329.60;;;;;;5089102;28;20028;-60
2023/10/02 03:17:28;;;;;;;8.43;5.85;;;359.00;2329.60;;;;;;5088423;28;20032;-59
2023/10/02 03:19:46;;;;;;;9.48;5.82;;;359.00;2329.60;;;;;;5088095;28;20048;-60
2023/10/02 03:22:12;;;;;;;16.33;6.20;;;359.00;2329.60;;;;;;5088561;28;20031;-60
2023/10/02 03:24:41;;;;;;;12.88;6.18;;;359.00;2329.60;;;;;;5087822;28;20123;-59
2023/10/02 03:27:09;;;;;;;10.30;6.28;;;359.00;2329.60;;;;;;5088283;28;20101;-58
2023/10/02 03:29:36;;;;;;;13.70;6.38;;;358.90;2329.60;;;;;;5088546;28;20118;-59
2023/10/02 03:32:02;;;;;;;13.32;5.72;;;358.90;2329.60;;;;;;5076023;28;20036;-60
2023/10/02 03:34:28;;;;;;;13.50;6.68;;;358.90;2329.60;;;;;;5088602;28;20365;-60
2023/10/02 03:37:00;;;;;;;15.10;8.07;;;384.00;2329.60;;;;;;5088595;28;20367;-59
2023/10/02 03:42:14;;;;;;;18.55;7.88;;;358.80;2329.60;;;;;;5057511;28;20446;-60
2023/10/02 03:44:42;;;;;;;12.80;8.73;;;358.80;2329.60;;;;;;5069908;28;20020;-58
2023/10/02 03:47:12;;;;;;;13.00;7.90;;;358.80;2329.60;;;;;;5088920;28;20067;-59
2023/10/02 03:49:45;;;;;;;10.80;7.45;;;358.70;2329.60;;;;;;5088605;28;20029;-60
2023/10/02 03:52:18;;;;;;;13.38;7.03;;;358.70;2329.60;;;;;;5088355;28;20024;-59
2023/10/02 03:54:45;;;;;;;15.43;7.38;;;358.70;2329.60;;;;;;5088874;28;20450;-59
2023/10/02 04:00:18;;;;;;;17.38;8.80;;;358.70;2329.60;;;;;;5088774;28;20038;-58
2023/10/02 04:02:47;;;;;;;14.05;8.00;;;358.80;2329.60;;;;;;5088253;28;20119;-60
2023/10/02 04:05:32;;;;;;;10.45;8.05;;;358.70;2329.60;;;;;;5087328;28;20042;-60
2023/10/02 04:10:55;;;;;;;14.57;7.18;;;358.80;2329.60;;;;;;5086480;28;20475;-59
2023/10/02 04:13:27;;;;;;;11.63;6.00;;;358.90;2329.60;;;;;;5072415;28;20364;-60
2023/10/02 04:15:53;;;;;;;11.27;5.68;;;358.90;2329.60;;;;;;5074736;28;20024;-60
2023/10/02 04:18:45;;;;;;;14.02;7.28;;;358.90;2329.60;;;;;;5087991;28;20482;-60
2023/10/02 04:21:25;;;;;;;10.13;5.82;;;358.90;2329.60;;;;;;5088436;28;20257;-59
2023/10/02 04:23:55;;;;;;;12.82;6.28;;;359.00;2329.60;;;;;;5088040;28;20100;-59
2023/10/02 04:26:22;;;;;;;14.32;6.72;;;358.90;2329.60;;;;;;5087452;28;20473;-60
2023/10/02 04:28:55;;;;;;;15.43;6.45;;;359.00;2329.60;;;;;;5088446;28;20069;-59
2023/10/02 04:31:22;;;;;;;;;;;359.00;2329.60;;;;;;5076601;28;20489;-59
2023/10/02 04:34:00;;;;;;;10.00;5.55;;;359.00;2329.60;;;;;;5080612;28;19983;-57
2023/10/02 04:36:34;;;;;;;10.18;5.68;;;359.00;2329.60;;;;;;5090304;28;20413;-59
2023/10/02 04:39:03;;;;;;;14.60;7.63;;;359.00;2329.60;;;;;;5078431;28;20034;-60
2023/10/02 04:41:31;;;;;;;10.70;6.07;;;359.10;2329.60;;;;;;5079387;28;20104;-60
2023/10/02 04:43:57;;;;;;;13.68;6.80;;;359.00;2329.60;;;;;;5088052;28;20039;-59
2023/10/02 04:46:28;;;;;;;12.75;6.45;;;359.10;2329.60;;;;;;5091643;28;20074;-60
2023/10/02 04:48:59;;;;;;;9.18;6.68;;;359.10;2329.60;;;;;;5082852;28;20020;-59
2023/10/02 04:51:28;;;;;;;10.90;5.95;;;359.10;2329.60;;;;;;5060226;28;20091;-58
2023/10/02 04:53:57;;;;;;;13.80;6.53;;;359.10;2329.60;;;;;;5070225;28;20067;-59
2023/10/02 04:56:26;;;;;;;12.02;6.68;;;359.10;2329.60;;;;;;5079675;28;20032;-59
2023/10/02 04:58:57;;;;;;;18.02;8.57;;;359.00;2329.60;;;;;;5079930;28;20040;-60
2023/10/02 05:01:29;;;;;;;11.38;7.75;;;359.00;2329.60;;;;;;5086280;28;20048;-58
2023/10/02 05:04:07;;;;;;;20.02;8.45;;;359.10;2329.60;;;;;;5078804;28;20470;-59
2023/10/02 05:06:43;;;;;;;13.40;7.85;;;359.00;2329.60;;;;;;5090847;28;20036;-57
2023/10/02 05:11:57;;;;;;;16.80;8.50;;;358.90;2329.60;;;;;;5081605;28;20028;-57
2023/10/02 05:14:47;;;;;;;10.38;6.50;;;359.10;2329.60;;;;;;5090479;28;20060;-58
2023/10/02 05:17:47;;;;;;;11.85;6.88;;;359.30;2329.60;;;;;;5088985;28;20039;-58
2023/10/02 05:20:07;;;;;;;11.05;6.80;;;384.00;2329.60;;;;;;5063629;28;20059;-57
2023/10/02 05:22:36;;;;;;;10.13;6.70;;;384.10;2329.60;;;;;;5072100;28;20033;-57
2023/10/02 05:25:07;;;;;;;11.23;6.22;;;384.30;2329.60;;;;;;5060893;28;20063;-57
2023/10/02 05:27:37;;;;;;;13.15;7.32;;;384.30;2329.60;;;;;;5083178;28;20033;-57
2023/10/02 05:30:12;;;;;;;10.80;7.10;;;384.30;2329.60;;;;;;5070646;28;20024;-58
2023/10/02 05:32:39;;;;;;;13.43;7.53;;;384.50;2329.60;;;;;;5086112;28;20562;-56
2023/10/02 05:37:45;;;;;;;13.98;8.75;;;384.40;2329.60;;;;;;5087410;28;20108;-58
2023/10/02 05:45:39;;;;;;;13.05;8.55;;;384.30;2329.60;;;;;;5084196;28;20177;-56
2023/10/02 05:48:14;;;;;;;12.07;7.13;;;384.40;2329.60;;;;;;5089825;28;20037;-57
2023/10/02 05:50:47;;;;;;;12.93;6.35;;;384.60;2329.60;;;;;;5075014;28;20104;-58
2023/10/02 05:53:15;;;;;;;13.13;8.32;;;384.60;2329.60;;;;;;5074309;28;20111;-57
2023/10/02 05:55:57;;;;;;;11.15;7.50;;;384.70;2329.60;;;;;;5074314;28;20033;-58
2023/10/02 05:58:31;;;;;;;17.23;8.75;;;384.80;2329.60;;;;;;5074560;28;20059;-57
2023/10/02 06:01:18;;;;;;;10.70;7.20;;;409.60;2355.20;;;;;;5074548;28;20387;-58
2023/10/02 06:03:51;;;;;;;12.27;6.75;;;435.30;2355.20;;;;;;5074549;28;20397;-59
2023/10/02 06:06:23;;;;;;;;;;;;;;;;;;5074768;28;20040;-58
2023/10/02 06:08:54;;;;;;;11.32;7.20;;;563.70;2432.00;;;;;;5074784;28;19904;-58
2023/10/02 06:11:27;;;;;;;13.48;8.13;;;589.00;2329.60;;;;;;5074045;28;20040;-59
2023/10/02 06:13:57;;;;;;;10.38;8.18;;;615.20;2124.80;;;;;;5074046;28;20033;-58
2023/10/02 06:16:29;;;;;;;12.43;9.18;;;665.60;2022.40;;;;;;5073966;28;20111;-59
2023/10/02 06:19:02;;;;;;;12.73;9.38;;;691.30;1894.40;;;;;;5074109;28;20040;-58
2023/10/02 06:21:33;;;;;;;13.27;9.23;;;692.00;1817.60;;;;;;5073832;28;20025;-58
2023/10/02 06:23:59;;;;;;;12.25;8.00;;;691.80;1817.60;;;;;;5073869;28;20102;-58
2023/10/02 06:26:46;;;;;;;14.13;8.77;;;665.80;1920.00;;;;;;5073694;28;20071;-58
2023/10/02 06:29:20;;;;;;;10.77;6.50;;;640.30;1945.60;;;;;;5074107;28;20028;-58
2023/10/02 06:31:51;;;;;;;12.68;8.00;;;589.70;2048.00;;;;;;5074029;28;20051;-58
2023/10/02 06:34:19;;;;;;;13.57;8.70;;;589.60;2099.20;;;;;;5073715;28;20458;-58
2023/10/02 06:36:48;;;;;;;11.77;7.68;;;640.70;1945.60;;;;;;5074113;28;20076;-59
2023/10/02 06:39:21;;;;;;;14.20;8.40;;;666.00;1920.00;;;;;;5073743;28;20081;-58
2023/10/02 06:41:47;;;;;;;;;;;665.60;1945.60;;;;;;5073919;28;20453;-58
2023/10/02 06:44:15;;;;;;;12.43;7.68;;;665.60;1945.60;;;;;;5073496;28;19955;-58
2023/10/02 06:46:53;;;;;;;11.93;7.25;;;666.00;1894.40;;;;;;5073451;28;20387;-59
2023/10/02 06:49:20;;;;;;;11.23;8.40;;;691.60;1843.20;;;;;;5073373;28;20036;-59
2023/10/02 06:51:49;;;;;;;9.45;6.93;;;691.90;1843.20;;;;;;5073422;28;20112;-57
2023/10/02 06:54:19;;;;;;;12.02;8.50;;;692.10;1792.00;;;;;;5073161;28;20025;-59
2023/10/02 06:56:48;;;;;;;11.30;8.98;;;717.20;1792.00;;;;;;5073435;28;20445;-58
2023/10/02 06:59:14;;;;;;;12.35;9.05;;;742.90;1740.80;;;;;;5072918;28;20028;-58
2023/10/02 07:02:04;;;;;;;13.10;9.70;;;768.40;1689.60;;;;;;5073424;28;20025;-59
2023/10/02 07:04:32;;;;;;;10.45;8.27;;;794.20;1638.40;;;;;;5072724;28;20039;-59
2023/10/02 07:07:04;;;;;;;12.18;8.73;;;819.30;1587.20;;;;;;5073626;28;20024;-59
2023/10/02 07:09:37;;;;;;;11.52;9.20;;;819.50;1561.60;;;;;;5073160;28;20024;-60
2023/10/02 07:12:13;;;;;;;13.35;8.90;;;844.80;1561.60;;;;;;5073116;28;20033;-59
2023/10/02 07:14:40;;;;;;;10.73;9.73;;;870.70;1459.20;;;;;;5072789;28;20037;-59
2023/10/02 07:17:16;;;;;;;9.60;8.57;;;870.70;1433.60;;;;;;5072690;28;20028;-59
2023/10/02 07:19:49;;;;;;;13.73;9.48;;;870.50;1459.20;;;;;;5072691;28;20052;-59
2023/10/02 07:22:23;;;;;;;11.00;9.27;;;845.50;1459.20;;;;;;5073015;28;20108;-59
2023/10/02 07:24:52;;;;;;;15.32;10.43;;;870.70;1433.60;;;;;;5072884;28;20101;-58
2023/10/02 07:27:25;;;;;;;12.13;9.07;;;896.70;1356.80;;;;;;5073094;28;20025;-60
2023/10/02 07:29:59;;;;;;;12.32;9.70;;;896.60;1356.80;;;;;;5072905;28;20086;-59
2023/10/02 07:32:32;;;;;;;11.20;10.10;;;922.00;1331.20;;;;;;5072977;28;20370;-59
2023/10/02 07:35:21;;;;;;;11.75;10.48;;;921.90;1331.20;;;;;;5072836;28;20039;-59
2023/10/02 07:37:57;;;;;;;11.95;8.75;;;896.90;1331.20;;;;;;5072411;28;20035;-59
2023/10/02 07:40:48;;;;;;;12.02;8.90;;;896.40;1356.80;;;;;;5072361;28;20443;-60
2023/10/02 07:43:21;;;;;;;10.30;8.80;;;896.10;1331.20;;;;;;5072655;28;20056;-58
2023/10/02 07:46:06;;;;;;;14.65;8.98;;;871.30;1356.80;;;;;;5072625;28;20089;-60
2023/10/02 07:48:35;;;;;;;10.02;7.95;;;870.90;1382.40;;;;;;5072606;28;20032;-58
2023/10/02 07:51:02;;;;;;;11.80;7.65;;;845.60;1433.60;;;;;;5071396;28;20031;-58
2023/10/02 07:53:40;;;;;;;10.50;8.73;;;845.00;1459.20;;;;;;5075592;28;20024;-58
2023/10/02 07:56:07;;;;;;;12.98;8.07;;;819.90;1433.60;;;;;;5079554;28;20060;-58
2023/10/02 07:58:36;;;;;;;10.65;8.43;;;793.70;1510.40;;;;;;5068682;28;20024;-58
2023/10/02 08:01:12;;;;;;;12.10;8.07;;;743.30;1561.60;;;;;;5077819;28;20474;-59
2023/10/02 08:03:44;;;;;;;10.02;7.00;;;717.70;1612.80;;;;;;5074744;28;20068;-58
2023/10/02 08:06:33;;;;;;;10.52;7.03;;;717.10;1638.40;;;;;;5075144;28;20116;-59
2023/10/02 08:11:52;;;;;;;9.73;6.93;;;691.20;1715.20;;;;;;5091095;28;20449;-58
2023/10/02 08:17:27;;;;;;;13.77;7.03;;;665.60;1766.40;;;;;;5091090;28;20074;-58
2023/10/02 08:19:54;;;;;;;11.30;7.30;;;640.50;1817.60;;;;;;5075005;28;20044;-58
2023/10/02 08:22:36;;;;;;;14.55;7.30;;;640.10;1817.60;;;;;;5092267;28;20031;-58
2023/10/02 08:25:13;;;;;;;13.88;6.88;;;640.20;1817.60;;;;;;5092463;28;20123;-57
2023/10/02 08:27:46;;;;;;;11.63;7.28;;;640.10;1843.20;;;;;;5080328;28;20091;-58
2023/10/02 08:30:54;;;;;;;13.05;6.50;;;615.30;1843.20;;;;;;5086005;28;20031;-58
2023/10/02 08:33:05;;;;;;;9.55;6.43;;;640.10;1843.20;;;;;;5090343;28;20420;-58
2023/10/02 08:35:37;;;;;;;10.82;7.10;;;640.70;1792.00;;;;;;5091933;28;20538;-58
2023/10/02 08:38:21;;;;;;;10.45;6.93;;;640.70;1792.00;;;;;;5080061;28;20373;-58
2023/10/02 08:40:57;;;;;;;13.45;7.60;;;640.80;1792.00;;;;;;5067903;28;20130;-57
2023/10/02 08:43:31;;;;;;;13.50;7.43;;;640.60;1817.60;;;;;;5092138;28;20024;-58
2023/10/02 08:45:57;;;;;;;12.85;6.40;;;665.70;1817.60;;;;;;5092173;28;20535;-59
2023/10/02 08:48:25;;;;;;;13.50;6.93;;;640.90;1792.00;;;;;;5091610;28;20032;-58
2023/10/02 08:50:57;;;;;;;10.77;6.65;;;640.30;1817.60;;;;;;5088841;28;20036;-58
2023/10/02 08:53:23;;;;;;;14.88;7.18;;;640.30;1843.20;;;;;;5071393;28;20086;-58
2023/10/02 08:56:01;;;;;;;9.57;6.40;;;640.00;1843.20;;;;;;5064021;28;20036;-58
2023/10/02 08:58:27;;;;;;;12.93;7.15;;;615.20;1868.80;;;;;;5060048;28;20393;-58
2023/10/02 09:03:42;;;;;;;12.05;7.28;;;640.10;1843.20;;;;;;5069169;28;20047;-58
2023/10/02 09:06:32;;;;;;;12.73;6.88;;;640.20;1843.20;;;;;;5065696;28;20055;-59
2023/10/02 09:09:21;;;;;;;9.65;6.45;;;640.30;1843.20;;;;;;5063880;28;20032;-59
2023/10/02 09:11:57;;;;;;;12.85;7.88;;;640.40;1817.60;;;;;;5082717;28;20085;-58
2023/10/02 09:19:49;;;;;;;12.05;6.55;;;665.60;1817.60;;;;;;5084138;28;20101;-58
2023/10/02 09:22:17;;;;;;;27.17;24.63;;;665.60;1817.60;;;;;;5077857;28;20028;-58
2023/10/02 09:24:57;;;;;;;10.30;7.57;;;665.70;1817.60;;;;;;5074526;28;20040;-59
2023/10/02 09:27:25;;;;;;;14.85;7.10;;;665.70;1817.60;;;;;;5065642;28;20024;-57
2023/10/02 09:32:47;;;;;;;14.00;7.50;;;666.10;1817.60;;;;;;5084687;28;20077;-58
2023/10/02 09:35:42;;;;;;;9.57;6.32;;;666.20;1817.60;;;;;;5079566;28;20024;-58
2023/10/02 09:38:15;;;;;;;12.15;8.07;;;666.20;1817.60;;;;;;5090858;28;20470;-57
2023/10/02 09:43:30;;;;;;;11.07;7.63;;;665.90;1843.20;;;;;;5090995;28;20085;-58
2023/10/02 09:46:06;;;;;;;17.27;8.43;;;640.90;1792.00;;;;;;5090613;28;20066;-58
2023/10/02 09:48:52;;;;;;;12.90;7.57;;;666.00;1792.00;;;;;;5090708;28;20101;-59
2023/10/02 09:51:30;;;;;;;11.88;8.00;;;640.70;1843.20;;;;;;5066425;28;20505;-59
2023/10/02 09:54:08;;;;;;;17.48;11.18;;;640.90;1817.60;;;;;;5090141;28;20032;-58
2023/10/02 09:57:04;;;;;;;13.65;8.68;;;640.90;1843.20;;;;;;5090627;28;20123;-60
2023/10/02 09:59:37;;;;;;;11.45;7.38;;;640.80;1843.20;;;;;;5067247;28;20554;-60
2023/10/02 10:10:29;;;;;;;11.32;6.95;;;640.60;1868.80;;;;;;5047324;28;20112;-59
2023/10/02 10:13:09;;;;;;;12.98;7.05;;;640.40;1868.80;;;;;;5047990;28;20091;-58
2023/10/02 10:15:37;;;;;;;12.63;6.88;;;640.70;1868.80;;;;;;5015778;28;20033;-59
2023/10/02 10:18:12;;;;;;;10.70;7.25;;;640.40;1868.80;;;;;;5041517;28;20541;-59
2023/10/02 10:20:38;;;;;;;14.98;8.40;;;640.40;1868.80;;;;;;5047661;28;20036;-59
2023/10/02 10:23:34;;;;;;;10.90;7.10;;;640.40;1868.80;;;;;;5047320;28;20029;-59
2023/10/02 10:26:09;;;;;;;16.48;7.50;;;640.40;1894.40;;;;;;5047041;28;20041;-59
2023/10/02 10:28:50;;;;;;;12.43;7.28;;;640.40;1868.80;;;;;;5047373;28;20009;-58
2023/10/02 10:31:27;;;;;;;10.77;7.22;;;640.90;1843.20;;;;;;5040349;28;20053;-59
2023/10/02 10:33:56;;;;;;;11.93;6.55;;;640.70;1868.80;;;;;;5035994;28;20100;-58
2023/10/02 10:36:39;;;;;;;9.80;7.40;;;640.90;1843.20;;;;;;5045246;28;20041;-58
2023/10/02 10:39:44;;;;;;;11.60;7.90;;;665.70;1868.80;;;;;;5046470;28;20399;-59
2023/10/02 10:42:10;;;;;;;12.45;6.35;;;666.20;1843.20;;;;;;5036626;28;20509;-59
2023/10/02 10:44:43;;;;;;;14.52;8.48;;;666.30;1817.60;;;;;;5036092;28;20111;-59
2023/10/02 10:47:14;;;;;;;14.38;7.00;;;666.40;1792.00;;;;;;5057684;28;20039;-59
2023/10/02 10:49:53;;;;;;;10.52;7.05;;;666.20;1817.60;;;;;;5049653;28;20086;-60
2023/10/02 10:52:36;;;;;;;12.00;7.22;;;666.40;1817.60;;;;;;5050992;28;20116;-60
2023/10/02 10:55:04;;;;;;;12.63;7.87;;;665.70;1843.20;;;;;;5050272;28;20032;-60
2023/10/02 10:57:51;;;;;;;14.85;7.68;;;640.90;1843.20;;;;;;5051093;28;20099;-57
2023/10/02 11:00:31;;;;;;;10.75;6.82;;;640.70;1868.80;;;;;;5051362;28;20502;-59
2023/10/02 11:03:19;;;;;;;10.13;6.90;;;640.40;1894.40;;;;;;5040777;28;20479;-59
2023/10/02 11:05:45;;;;;;;11.65;7.25;;;640.20;1894.40;;;;;;5044035;28;20087;-59
2023/10/02 11:08:28;;;;;;;11.48;7.65;;;640.90;1843.20;;;;;;5044177;28;20043;-58
2023/10/02 11:11:00;;;;;;;13.73;8.18;;;640.70;1868.80;;;;;;5040530;28;20033;-59
2023/10/02 11:13:28;;;;;;;12.15;8.23;;;665.70;1868.80;;;;;;5053732;28;20017;-60
2023/10/02 11:16:07;;;;;;;14.05;8.05;;;665.70;1843.20;;;;;;5051600;28;20046;-57
2023/10/02 11:18:38;;;;;;;13.50;7.82;;;640.70;1868.80;;;;;;5068622;28;20033;-59
2023/10/02 11:21:21;;;;;;;13.05;7.70;;;665.80;1894.40;;;;;;5079027;28;20050;-59
2023/10/02 11:23:48;;;;;;;9.60;6.32;;;665.90;1843.20;;;;;;5089250;28;20019;-59
2023/10/02 11:26:15;;;;;;;11.63;7.80;;;666.10;1817.60;;;;;;5072492;28;20139;-59
2023/10/02 11:28:44;;;;;;;14.45;8.25;;;666.10;1843.20;;;;;;5069827;28;20059;-60
2023/10/02 11:31:30;;;;;;;9.77;7.03;;;666.00;1843.20;;;;;;5072364;28;20016;-60
2023/10/02 11:34:11;;;;;;;14.55;7.90;;;665.80;1868.80;;;;;;5075017;28;20024;-59
2023/10/02 11:36:39;;;;;;;12.00;6.82;;;665.70;1868.80;;;;;;5064657;28;20162;-58
2023/10/02 11:39:09;;;;;;;11.60;7.18;;;665.60;1868.80;;;;;;5075497;28;20040;-59
2023/10/02 11:41:37;;;;;;;12.30;7.68;;;665.60;1843.20;;;;;;5072367;28;20035;-60
2023/10/02 11:44:05;;;;;;;12.90;7.80;;;640.90;1843.20;;;;;;5075122;28;20033;-59
2023/10/02 11:46:31;;;;;;;11.93;7.97;;;640.90;1843.20;;;;;;5072596;28;20133;-59
2023/10/02 11:48:57;;;;;;;11.85;8.30;;;640.70;1843.20;;;;;;5075720;28;20067;-59
2023/10/02 11:51:28;;;;;;;12.02;8.05;;;640.70;1894.40;;;;;;5074700;28;20029;-59
2023/10/02 11:53:58;;;;;;;16.52;8.32;;;640.50;1843.20;;;;;;5077331;28;20028;-57
2023/10/02 11:56:26;;;;;;;16.13;8.30;;;640.50;1868.80;;;;;;5066282;28;20184;-59
2023/10/02 11:58:52;;;;;;;13.57;8.43;;;640.70;1868.80;;;;;;5077073;28;20490;-58
2023/10/02 12:01:24;;;;;;;13.05;7.38;;;640.70;1868.80;;;;;;5082461;28;20028;-57
2023/10/02 12:03:50;;;;;;;11.63;7.33;;;640.70;1843.20;;;;;;5073826;28;20115;-58
2023/10/02 12:06:16;;;;;;;11.07;7.93;;;640.50;1894.40;;;;;;5054389;28;20183;-60
2023/10/02 12:08:44;;;;;;;11.25;8.18;;;640.30;1894.40;;;;;;5078783;28;20475;-59
2023/10/02 12:11:13;;;;;;;12.52;7.65;;;615.30;1920.00;;;;;;5069622;28;20040;-58
2023/10/02 12:13:40;;;;;;;13.07;8.55;;;615.30;1920.00;;;;;;5073625;28;20032;-56
2023/10/02 12:16:10;;;;;;;18.52;7.82;;;615.20;1920.00;;;;;;5078888;28;20496;-59
2023/10/02 12:18:43;;;;;;;13.98;8.05;;;615.00;1945.60;;;;;;5083687;28;20044;-59
2023/10/02 12:21:11;;;;;;;13.35;7.75;;;615.20;1894.40;;;;;;5088061;28;20120;-59
2023/10/02 12:23:43;;;;;;;16.60;9.00;;;640.20;1894.40;;;;;;5088617;28;20020;-59
2023/10/02 12:26:14;;;;;;;11.25;8.02;;;640.20;1894.40;;;;;;5088439;28;20428;-58
2023/10/02 12:28:41;;;;;;;14.80;8.35;;;640.10;1945.60;;;;;;5087366;28;20074;-57
2023/10/02 12:31:13;;;;;;;11.13;7.53;;;640.30;1894.40;;;;;;5084979;28;20066;-60
2023/10/02 12:33:43;;;;;;;12.50;7.10;;;640.20;1920.00;;;;;;5082062;28;20107;-57
2023/10/02 12:36:22;;;;;;;14.20;8.13;;;640.40;1894.40;;;;;;5067380;28;20108;-58
2023/10/02 12:42:10;;;;;;;13.68;7.78;;;640.30;1920.00;;;;;;5092389;28;20456;-58
2023/10/02 12:44:40;;;;;;;12.93;7.32;;;640.50;1868.80;;;;;;5092344;28;20028;-58
2023/10/02 12:47:06;;;;;;;12.45;8.30;;;640.20;1868.80;;;;;;5089595;28;20036;-58
2023/10/02 12:49:35;;;;;;;12.85;8.27;;;640.30;1894.40;;;;;;5085744;28;20024;-60
2023/10/02 12:52:01;;;;;;;17.55;7.95;;;640.50;1868.80;;;;;;5084116;28;20533;-57
2023/10/02 12:54:27;;;;;;;10.90;6.97;;;640.70;1868.80;;;;;;5071642;28;20021;-57
2023/10/02 12:56:53;;;;;;;12.13;7.78;;;640.50;1868.80;;;;;;5085729;28;20060;-57
2023/10/02 12:59:19;;;;;;;10.98;7.95;;;640.60;1843.20;;;;;;5082604;28;20401;-59
2023/10/02 13:01:45;;;;;;;13.63;8.38;;;640.50;1894.40;;;;;;5084334;28;20016;-59
2023/10/02 13:04:12;;;;;;;12.70;8.13;;;640.40;1868.80;;;;;;5079110;28;20048;-58
2023/10/02 13:06:38;;;;;;;11.23;7.75;;;640.20;1920.00;;;;;;5083735;28;20119;-59
2023/10/02 13:09:10;;;;;;;10.77;7.80;;;640.10;1920.00;;;;;;5076183;28;20421;-58
2023/10/02 13:11:39;;;;;;;13.85;7.38;;;640.00;1945.60;;;;;;5083109;28;20384;-58
2023/10/02 13:14:08;;;;;;;10.93;7.40;;;615.30;1920.00;;;;;;5076776;28;20081;-59
2023/10/02 13:16:37;;;;;;;15.30;8.57;;;615.30;1920.00;;;;;;5089629;28;20389;-58
2023/10/02 13:19:09;;;;;;;14.77;8.13;;;615.20;1971.20;;;;;;5088717;28;20072;-57
2023/10/02 13:21:42;;;;;;;12.55;8.43;;;615.30;1920.00;;;;;;5081688;28;20036;-56
2023/10/02 13:24:15;;;;;;;14.55;9.15;;;615.20;1945.60;;;;;;5065892;28;20401;-58
2023/10/02 13:26:41;;;;;;;13.63;8.10;;;640.20;1920.00;;;;;;5086621;28;20449;-58
2023/10/02 13:29:07;;;;;;;14.63;7.28;;;615.20;1971.20;;;;;;5080938;28;20392;-58